Latest Weather Observations for Mount Lofty

IDS60901

Issued at 11:45 pm CST Sunday 21 September 2014 (issued every 10 minutes, with the page automatically refreshed every 10 minutes)

About weather observations | Map of Adelaide area stations | Latest observations for Adelaide area | Other Formats
Station Details ID: 023842 Name: MOUNT LOFTY Lat: -34.98 Lon: 138.71 Height: 685.0 m
Data from the previous 72 hours. | See also: Recent months at Mount Lofty
Date/Time
CST
Tmp

°C
App
Tmp
°C
Dew
Point
°C
Rel
Hum
%
Delta-T

°C
Wind Press
QNH
hPa
Press
MSL
hPa
Rain
since
9 am
mm
Dir
 
Spd
km/h
Gust
km/h
Spd
kts
Gust
kts
21/11:30pm 9.8 6.5 0.4 52 4.0 E 7 11 4 6 - - 0.0
21/11:00pm 8.6 5.7 1.7 62 3.0 ESE 6 9 3 5 - - 0.0
21/10:30pm 8.7 5.7 2.3 64 2.8 ESE 7 11 4 6 - - 0.0
21/10:00pm 9.0 6.0 1.9 61 3.1 ESE 7 13 4 7 - - 0.0
21/09:30pm 9.6 6.7 1.5 57 3.5 ESE 6 7 3 4 - - 0.0
21/09:00pm 10.5 7.4 0.0 48 4.4 ESE 6 9 3 5 - - 0.0
21/08:30pm 10.6 7.7 -1.1 44 4.8 ESE 4 7 2 4 - - 0.0
21/08:00pm 10.2 7.8 -0.3 48 4.4 ESE 2 6 1 3 - - 0.0
21/07:30pm 10.9 8.5 -0.2 46 4.7 SE 2 6 1 3 - - 0.0
21/07:00pm 11.9 9.3 0.7 46 4.9 ESE 4 6 2 3 - - 0.0
21/06:30pm 12.4 10.2 0.8 45 5.1 SE 2 4 1 2 - - 0.0
21/06:00pm 13.5 11.7 0.9 42 5.6 CALM 0 2 0 1 - - 0.0
21/05:30pm 14.7 12.2 1.6 41 5.9 E 4 6 2 3 - - 0.0
21/05:00pm 16.0 14.1 3.1 42 6.1 E 2 6 1 3 - - 0.0
21/04:30pm 16.8 15.1 3.8 42 6.3 E 2 6 1 3 - - 0.0
21/04:00pm 17.3 15.7 4.3 42 6.4 E 2 6 1 3 - - 0.0
21/03:30pm 16.9 14.2 2.9 39 6.6 E 6 11 3 6 - - 0.0
21/03:00pm 17.4 14.9 3.7 40 6.6 E 6 13 3 7 - - 0.0
21/02:30pm 17.8 15.3 3.7 39 6.8 E 6 13 3 7 - - 0.0
21/02:00pm 17.3 15.1 3.2 39 6.7 NNE 4 9 2 5 - - 0.0
21/01:30pm 16.5 13.7 2.9 40 6.4 NNE 7 13 4 7 - - 0.0
21/01:00pm 17.0 14.7 3.0 39 6.7 NNW 4 7 2 4 - - 0.0
21/12:30pm 16.4 14.1 2.8 40 6.4 W 4 11 2 6 - - 0.0
21/12:00pm 16.4 14.2 3.1 41 6.3 E 4 9 2 5 - - 0.0
21/11:30am 15.8 13.9 2.6 41 6.2 SE 2 7 1 4 - - 0.0
21/11:00am 15.7 13.7 2.2 40 6.3 NNW 2 7 1 4 - - 0.0
21/10:30am 15.4 13.1 2.9 43 5.9 ESE 4 7 2 4 - - 0.0
21/10:00am 14.6 12.1 1.5 41 5.9 SE 4 7 2 4 - - 0.0
21/09:30am 14.2 11.4 2.1 44 5.5 NE 6 9 3 5 - - 0.0
21/09:00am 13.5 10.8 2.4 47 5.1 ENE 6 9 3 5 - - 0.0
21/08:30am 13.0 10.1 1.7 46 5.1 ENE 6 11 3 6 - - 0.0
21/08:00am 12.0 9.1 1.3 48 4.7 ENE 6 11 3 6 - - 0.0
21/07:30am 10.5 7.5 0.5 50 4.3 ENE 6 15 3 8 - - 0.0
21/07:00am 9.1 6.1 0.6 55 3.6 ENE 6 13 3 7 - - 0.0
21/06:30am 8.7 5.6 0.2 55 3.5 ENE 6 13 3 7 - - 0.0
21/06:00am 8.5 5.2 0.2 56 3.4 ENE 7 15 4 8 - - 0.0
21/05:30am 8.6 5.5 0.3 56 3.5 ENE 6 13 3 7 - - 0.0
21/05:00am 8.1 5.1 0.6 59 3.1 ENE 6 11 3 6 - - 0.0
21/04:30am 8.0 4.8 0.7 60 3.1 E 7 15 4 8 - - 0.0
21/04:00am 8.1 4.9 0.8 60 3.1 E 7 13 4 7 - - 0.0
21/03:30am 7.8 4.9 1.2 63 2.8 E 6 13 3 7 - - 0.0
21/03:00am 7.3 4.4 1.4 66 2.5 E 6 9 3 5 - - 0.0
21/02:30am 7.4 4.3 1.5 66 2.5 E 7 13 4 7 - - 0.0
21/02:00am 7.4 3.9 1.5 66 2.5 E 9 17 5 9 - - 0.0
21/01:30am 7.7 4.3 1.8 66 2.5 ESE 9 15 5 8 - - 0.0
21/01:00am 8.0 5.0 1.8 65 2.7 ESE 7 13 4 7 - - 0.0
21/12:30am 8.1 4.4 2.4 67 2.5 ESE 11 28 6 15 - - 0.0
21/12:00am 7.9 4.6 2.6 69 2.3 E 9 15 5 8 - - 0.0
 
Date/Time
CST
Tmp

°C
App
Tmp
°C
Dew
Point
°C
Rel
Hum
%
Delta-T

°C
Wind Press
QNH
hPa
Press
MSL
hPa
Rain
since
9 am
mm
Dir
 
Spd
km/h
Gust
km/h
Spd
kts
Gust
kts
20/11:30pm 7.5 3.9 3.0 73 2.0 E 11 20 6 11 - - 0.0
20/11:00pm 7.7 4.2 3.4 74 1.9 E 11 26 6 14 - - 0.0
20/10:30pm 8.1 4.2 3.6 73 2.0 ESE 13 22 7 12 - - 0.0
20/10:00pm 7.6 4.2 4.0 78 1.6 E 11 20 6 11 - - 0.0
20/09:30pm 8.3 4.5 3.8 73 2.0 E 13 22 7 12 - - 0.0
20/09:00pm 8.7 4.8 3.5 70 2.3 E 13 24 7 13 - - 0.0
20/08:30pm 9.1 5.2 3.3 67 2.6 E 13 22 7 12 - - 0.0
20/08:00pm 9.5 5.5 2.6 62 3.1 E 13 19 7 10 - - 0.0
20/07:30pm 10.0 6.1 1.4 55 3.7 ESE 11 19 6 10 - - 0.0
20/07:00pm 10.6 6.7 1.2 52 4.1 ESE 11 22 6 12 - - 0.0
20/06:30pm 11.3 7.8 1.3 50 4.4 ESE 9 17 5 9 - - 0.0
20/06:00pm 12.2 9.3 1.5 48 4.7 ESE 6 13 3 7 - - 0.0
20/05:30pm 13.3 10.3 1.9 46 5.1 ESE 7 13 4 7 - - 0.0
20/05:00pm 14.3 11.5 2.9 46 5.3 ESE 7 13 4 7 - - 0.0
20/04:30pm 15.0 12.5 3.8 47 5.3 SE 6 9 3 5 - - 0.0
20/04:00pm 16.0 13.9 5.6 50 5.2 ESE 6 11 3 6 - - 0.0
20/03:30pm 14.4 12.3 3.8 49 5.0 ESE 4 6 2 3 - - 0.0
20/03:00pm 14.5 12.8 3.9 49 5.0 ESE 2 6 1 3 - - 0.0
20/02:30pm 15.2 12.6 3.4 45 5.6 SE 6 11 3 6 - - 0.0
20/02:00pm 16.3 14.2 3.7 43 6.0 WNW 4 11 2 6 - - 0.0
20/01:30pm 15.9 14.0 4.9 48 5.4 NNE 4 9 2 5 - - 0.0
20/01:00pm 15.3 13.1 3.5 45 5.6 ESE 4 9 2 5 - - 0.0
20/12:30pm 14.8 12.5 2.7 44 5.6 SE 4 11 2 6 - - 0.0
20/12:00pm 14.7 12.3 4.1 49 5.1 SSE 6 9 3 5 - - 0.0
20/11:30am 15.3 12.8 3.5 45 5.6 E 6 11 3 6 - - 0.0
20/11:00am 14.7 12.1 3.2 46 5.4 NE 6 11 3 6 - - 0.0
20/10:30am 14.2 11.5 2.8 46 5.3 NE 6 9 3 5 - - 0.0
20/10:00am 13.7 11.0 2.6 47 5.1 NE 6 13 3 7 - - 0.0
20/09:30am 13.3 10.4 1.6 45 5.2 E 6 11 3 6 - - 0.0
20/09:00am 12.5 9.6 1.2 46 5.0 E 6 13 3 7 - - 0.0
20/08:30am 11.2 8.2 0.9 49 4.5 E 6 11 3 6 - - 0.0
20/08:00am 10.4 7.4 0.7 51 4.2 E 6 11 3 6 - - 0.0
20/07:30am 8.3 5.0 -0.2 55 3.5 E 7 15 4 8 - - 0.0
20/07:00am 7.3 4.0 -0.2 59 3.0 E 7 13 4 7 - - 0.0
20/06:30am 6.6 3.2 -0.4 61 2.8 E 7 15 4 8 - - 0.0
20/06:00am 6.1 2.9 -0.2 64 2.5 E 6 11 3 6 - - 0.0
20/05:30am 6.3 3.0 -0.2 63 2.6 E 7 15 4 8 - - 0.0
20/05:00am 6.0 2.9 -0.1 65 2.5 E 6 17 3 9 - - 0.0
20/04:30am 6.1 3.0 0.0 65 2.5 E 6 13 3 7 - - 0.0
20/04:00am 6.2 3.1 0.1 65 2.5 E 6 13 3 7 - - 0.0
20/03:30am 6.1 3.0 0.2 66 2.4 E 6 11 3 6 - - 0.0
20/03:00am 5.7 2.5 0.7 70 2.0 E 7 11 4 6 - - 0.0
20/02:30am 5.7 2.5 0.9 71 2.0 E 7 15 4 8 - - 0.0
20/02:00am 5.7 2.2 1.2 73 1.9 E 9 15 5 8 - - 0.0
20/01:30am 5.9 2.5 1.6 74 1.8 ESE 9 13 5 7 - - 0.0
20/01:00am 5.9 2.9 1.8 75 1.7 E 7 19 4 10 - - 0.0
20/12:30am 5.8 2.4 2.1 77 1.6 E 9 15 5 8 - - 0.0
20/12:00am 5.5 2.3 3.0 84 1.1 E 9 15 5 8 - - 0.0
 
Date/Time
CST
Tmp

°C
App
Tmp
°C
Dew
Point
°C
Rel
Hum
%
Delta-T

°C
Wind Press
QNH
hPa
Press
MSL
hPa
Rain
since
9 am
mm
Dir
 
Spd
km/h
Gust
km/h
Spd
kts
Gust
kts
19/11:30pm 5.5 2.4 3.5 87 0.9 E 9 17 5 9 - - 0.0
19/11:00pm 5.6 2.5 3.6 87 0.9 E 9 17 5 9 - - 0.0
19/10:30pm 5.6 2.6 4.2 91 0.6 E 9 17 5 9 - - 0.0
19/10:00pm 5.9 2.9 4.1 88 0.8 E 9 17 5 9 - - 0.0
19/09:30pm 6.3 3.0 4.5 88 0.8 ESE 11 20 6 11 - - 0.0
19/09:00pm 6.7 3.4 4.4 85 1.0 E 11 20 6 11 - - 0.0
19/08:30pm 6.7 3.7 3.9 82 1.2 ESE 9 17 5 9 - - 0.0
19/08:00pm 7.4 4.0 1.9 68 2.4 ESE 9 17 5 9 - - 0.0
19/07:30pm 7.4 4.8 1.0 64 2.7 ESE 4 7 2 4 - - 0.0
19/07:00pm 7.7 5.2 1.3 64 2.7 ESE 4 9 2 5 - - 0.0
19/06:30pm 8.3 5.8 1.7 63 2.8 ESE 4 6 2 3 - - 0.0
19/06:00pm 9.6 7.5 1.5 57 3.5 ESE 2 4 1 2 - - 0.0
19/05:30pm 11.0 9.4 2.6 56 3.8 CALM 0 6 0 3 - - 0.0
19/05:00pm 11.8 9.3 1.7 50 4.5 NE 4 7 2 4 - - 0.0
19/04:30pm 12.3 10.1 1.3 47 4.9 ENE 2 6 1 3 - - 0.0
19/04:00pm 12.9 10.9 2.5 49 4.7 N 2 7 1 4 - - 0.0
19/03:30pm 12.4 9.9 1.4 47 4.9 ENE 4 11 2 6 - - 0.0
19/03:00pm 12.6 10.2 2.2 49 4.7 NNE 4 9 2 5 - - 0.0
19/02:30pm 12.5 10.3 3.2 53 4.3 ENE 4 11 2 6 - - 0.0
19/02:00pm 11.8 9.0 2.3 52 4.3 E 6 9 3 5 - - 0.0
19/01:30pm 11.4 8.5 1.6 51 4.3 NE 6 11 3 6 - - 0.0
19/01:00pm 11.0 8.3 2.6 56 3.8 NE 6 9 3 5 - - 0.0
19/12:30pm 11.1 8.4 2.4 55 3.9 ENE 6 17 3 9 - - 0.0
19/12:00pm 10.6 8.2 2.4 57 3.7 N 4 9 2 5 - - 0.0
19/11:30am 11.4 8.7 2.7 55 3.9 NNE 6 11 3 6 - - 0.0
19/11:00am 10.7 8.2 3.5 61 3.3 SE 6 17 3 9 - - 0.0
19/10:30am 10.3 7.8 4.0 65 2.9 ESE 6 13 3 7 - - 0.0
19/10:00am 9.7 7.7 4.3 69 2.5 E 4 11 2 6 - - 0.0
19/09:30am 9.7 7.4 4.7 71 2.3 E 6 13 3 7 - - 0.0
19/09:00am 8.6 6.3 4.8 77 1.8 E 6 13 3 7 - - 3.8
19/08:30am 7.9 5.5 5.2 83 1.3 E 7 13 4 7 - - 3.8
19/08:00am 6.7 4.5 5.2 90 0.7 E 6 13 3 7 - - 3.8
19/07:30am 5.4 3.2 5.4 100 0.0 E 6 13 3 7 - - 3.8
19/07:00am 4.5 2.0 4.5 100 0.0 E 7 17 4 9 - - 3.8
19/06:30am 3.5 1.0 3.5 100 0.0 E 6 13 3 7 - - 3.8
19/06:00am 3.1 0.5 3.1 100 0.0 ESE 6 11 3 6 - - 3.8
19/05:30am 3.2 0.6 3.2 100 0.0 E 6 11 3 6 - - 3.8
19/05:00am 3.5 0.8 3.5 100 0.0 E 7 15 4 8 - - 3.6
19/04:30am 3.3 0.1 3.3 100 0.0 ESE 9 13 5 7 - - 3.6
19/04:00am 3.5 0.0 3.5 100 0.0 ESE 11 17 6 9 - - 3.6
19/03:30am 3.7 0.6 3.7 100 0.0 ESE 9 22 5 12 - - 3.6
19/03:00am 4.0 1.0 4.0 100 0.0 E 9 19 5 10 - - 3.6
19/02:30am 4.4 1.5 4.4 100 0.0 E 9 15 5 8 - - 3.6
19/02:00am 4.1 1.1 4.1 100 0.0 ESE 9 19 5 10 - - 3.6
19/01:30am 4.1 0.7 4.1 100 0.0 E 11 17 6 9 - - 3.6
19/01:00am 4.2 0.8 4.2 100 0.0 E 11 17 6 9 - - 3.6
19/12:30am 4.1 1.1 4.1 100 0.0 ESE 9 17 5 9 - - 3.6
19/12:00am 4.2 1.2 4.2 100 0.0 E 9 15 5 8 - - 3.6

Latest Capital City Observations: Canberra | Sydney | Melbourne | Brisbane | Adelaide | Perth | Hobart | Darwin

Other Formats:

Comma delimited format used in spreadsheet applications
http://www.bom.gov.au/fwo/IDS60901/IDS60901.95678.axf

JavaScript Object Notation format (JSON) in row-major order
http://www.bom.gov.au/fwo/IDS60901/IDS60901.95678.json